createdAt,value
2022-07-25T05:31:49.144Z,28.10
2022-07-25T05:34:51.042Z,28.80
2022-07-25T05:37:52.785Z,28.60
2022-07-25T05:40:54.594Z,28.90
2022-07-25T05:43:56.564Z,30.00
2022-07-25T05:46:58.369Z,31.80
2022-07-25T05:50:00.369Z,32.50
2022-07-25T05:53:02.117Z,33.50
2022-07-25T05:56:04.989Z,33.40
2022-07-25T05:59:06.806Z,33.70
2022-07-25T06:02:08.792Z,34.00
2022-07-25T06:05:10.664Z,34.20
2022-07-25T06:08:13.644Z,34.10
2022-07-25T06:11:15.414Z,34.80
2022-07-25T06:50:11.224Z,35.70
2022-07-25T06:53:13.386Z,36.10
2022-07-25T06:56:17.754Z,36.50
2022-07-25T06:59:19.929Z,36.90
2022-07-25T07:02:21.768Z,37.10
2022-07-25T07:05:24.782Z,37.60
2022-07-25T07:08:27.114Z,37.50
2022-07-25T07:11:29.655Z,37.50
2022-07-25T07:14:31.401Z,37.80
2022-07-25T07:17:33.547Z,37.80
2022-07-25T07:20:35.551Z,37.30
2022-07-25T07:23:37.702Z,37.40
2022-07-25T07:26:41.810Z,37.90
2022-07-25T07:29:43.575Z,37.80
2022-07-25T07:32:45.461Z,38.60
2022-07-25T07:35:47.426Z,37.70
2022-07-25T07:38:49.245Z,39.10
2022-07-25T07:41:51.039Z,39.50
2022-07-25T07:44:52.940Z,39.90
2022-07-25T07:47:55.416Z,40.30
2022-07-25T07:50:59.431Z,39.30
2022-07-25T07:54:21.108Z,39.90
2022-07-25T07:57:22.947Z,40.60
2022-07-25T08:00:25.082Z,40.40
2022-07-25T08:03:27.854Z,40.10
2022-07-25T08:06:30.201Z,38.90
2022-07-25T08:09:32.149Z,40.10
2022-07-25T08:12:34.116Z,39.20
2022-07-25T08:15:36.223Z,39.40
2022-07-25T08:18:38.279Z,39.40
2022-07-25T08:21:40.190Z,40.50
2022-07-25T08:24:41.972Z,39.60
2022-07-25T08:27:44.890Z,39.00
2022-07-25T08:30:47.086Z,39.70
2022-07-25T08:33:49.067Z,40.30
2022-07-25T08:36:50.904Z,40.70
2022-07-25T08:39:53.112Z,40.80
2022-07-25T08:42:56.462Z,40.60
2022-07-25T08:46:01.295Z,40.50
2022-07-25T08:49:03.430Z,40.90
2022-07-25T08:52:08.745Z,40.80
2022-07-25T08:55:14.849Z,40.30
2022-07-25T08:58:18.581Z,40.10
2022-07-25T09:01:20.391Z,41.20
2022-07-25T09:04:22.265Z,41.90
2022-07-25T09:07:31.551Z,40.70
2022-07-25T09:10:33.478Z,40.10
2022-07-25T09:13:38.575Z,40.00
2022-07-25T09:16:43.261Z,40.10
2022-07-25T09:19:56.007Z,41.80
2022-07-25T09:22:58.112Z,41.80
2022-07-25T09:26:15.390Z,41.90
2022-07-25T09:29:34.086Z,42.60
2022-07-25T09:32:35.858Z,41.50
2022-07-25T09:35:39.868Z,39.40
2022-07-25T09:38:52.176Z,38.70
2022-07-25T09:41:55.155Z,38.20
2022-07-25T09:45:12.507Z,39.80
2022-07-25T09:48:18.101Z,41.50
2022-07-25T09:51:20.095Z,42.10
2022-07-25T09:54:24.106Z,42.40
2022-07-25T09:57:27.896Z,40.20
2022-07-25T10:00:32.772Z,40.10
2022-07-25T10:03:51.837Z,41.10
2022-07-25T10:07:05.703Z,42.40
2022-07-25T10:10:07.703Z,41.80
2022-07-25T10:13:14.114Z,41.50
2022-07-25T10:16:19.829Z,41.70
2022-07-25T10:19:50.767Z,41.80
2022-07-25T10:22:56.852Z,43.00
2022-07-25T10:26:19.571Z,43.70
2022-07-25T10:29:21.337Z,42.90
2022-07-25T10:32:32.577Z,41.70
2022-07-25T10:35:34.358Z,42.40
2022-07-25T10:38:41.100Z,42.30
2022-07-25T10:41:44.913Z,40.50
2022-07-25T10:44:51.183Z,41.10
2022-07-25T10:47:56.297Z,41.60
2022-07-25T10:51:02.336Z,41.90
2022-07-25T10:54:22.685Z,40.50
2022-07-25T10:57:27.217Z,41.70
2022-07-25T11:00:34.270Z,42.00
2022-07-25T11:03:36.046Z,41.70
2022-07-25T11:06:40.325Z,42.00
2022-07-25T11:09:43.816Z,41.60
2022-07-25T11:12:45.705Z,40.90
2022-07-25T11:15:48.158Z,39.50
2022-07-25T11:18:49.872Z,38.10
2022-07-25T11:21:55.704Z,37.30
2022-07-25T11:24:58.572Z,37.10
2022-07-25T11:28:01.086Z,36.30
2022-07-25T11:31:04.556Z,36.60
2022-07-25T11:34:06.430Z,38.30
2022-07-25T11:37:10.279Z,38.90
2022-07-25T11:40:16.327Z,38.90
2022-07-25T11:43:22.756Z,38.20
2022-07-25T11:46:24.537Z,37.80
2022-07-25T11:49:26.421Z,38.00
2022-07-25T11:52:33.640Z,37.70
2022-07-25T11:55:40.179Z,37.60
2022-07-25T11:58:42.007Z,37.50
2022-07-25T12:01:45.284Z,37.80
2022-07-25T12:04:54.741Z,37.50
2022-07-25T12:07:56.545Z,36.30
2022-07-25T12:10:58.420Z,36.20
2022-07-25T12:14:05.907Z,36.10
2022-07-25T12:17:07.784Z,36.40
2022-07-25T12:20:15.113Z,36.50
2022-07-25T12:23:17.072Z,36.30
2022-07-25T12:26:19.148Z,36.30
2022-07-25T12:29:21.007Z,36.30
2022-07-25T12:32:22.775Z,36.50
2022-07-25T12:35:25.998Z,36.90
2022-07-25T12:38:28.240Z,36.90
2022-07-25T12:41:30.181Z,36.90
2022-07-25T12:44:32.077Z,36.70
2022-07-25T12:47:34.065Z,36.30
2022-07-25T12:50:35.804Z,36.10
2022-07-25T12:53:41.981Z,36.00
2022-07-25T12:56:44.301Z,36.40
2022-07-25T12:59:46.266Z,36.40
2022-07-25T13:02:49.294Z,36.70
2022-07-25T13:05:51.071Z,36.80
2022-07-25T13:08:52.928Z,36.50
2022-07-25T13:11:55.327Z,36.60
2022-07-25T13:14:57.535Z,36.40
2022-07-25T13:17:59.343Z,36.80
2022-07-25T13:21:03.462Z,36.70
2022-07-25T13:24:05.879Z,37.10
2022-07-25T13:27:08.115Z,37.10
2022-07-25T13:30:10.182Z,36.80
2022-07-25T13:33:11.944Z,36.70
2022-07-25T13:36:14.123Z,35.90
2022-07-25T13:39:16.100Z,36.10
2022-07-25T13:42:17.974Z,35.30
2022-07-25T13:45:19.702Z,35.00
2022-07-25T13:48:30.292Z,34.60
2022-07-25T13:51:33.071Z,34.70
2022-07-25T13:54:34.863Z,35.20
2022-07-25T13:57:37.181Z,35.20
2022-07-25T14:00:39.681Z,35.80
2022-07-25T14:03:41.614Z,36.00
2022-07-25T14:06:43.621Z,35.80
2022-07-25T14:09:45.454Z,36.20
2022-07-25T14:12:47.459Z,36.50
2022-07-25T14:15:49.577Z,36.30
2022-07-25T14:18:51.738Z,36.50
2022-07-25T14:21:53.510Z,36.60
2022-07-25T14:24:55.416Z,36.50
2022-07-25T14:27:58.981Z,36.00
2022-07-25T14:31:00.746Z,36.00
2022-07-25T14:34:02.539Z,36.20
2022-07-25T14:37:05.753Z,35.90
2022-07-25T14:40:10.978Z,35.80
2022-07-25T14:43:12.717Z,35.30
2022-07-25T14:46:15.647Z,34.90
2022-07-25T14:49:17.538Z,33.70
2022-07-25T14:52:19.610Z,31.90
2022-07-25T14:55:22.353Z,31.40
2022-07-25T14:58:24.272Z,31.40
2022-07-25T15:01:26.369Z,31.60
2022-07-25T15:04:28.448Z,31.80
2022-07-25T15:07:30.309Z,32.30
2022-07-25T15:10:32.220Z,32.80
2022-07-25T15:13:34.235Z,32.90
2022-07-25T15:16:36.105Z,33.20
2022-07-25T15:19:37.847Z,33.50
2022-07-25T15:22:39.739Z,33.90
2022-07-25T15:29:06.063Z,33.60
2022-07-25T15:32:09.399Z,33.10
2022-07-25T15:35:11.224Z,33.10
2022-07-25T15:38:15.548Z,33.30
2022-07-25T15:41:17.348Z,33.40
2022-07-25T15:44:19.190Z,33.30
2022-07-25T15:47:21.021Z,33.20
2022-07-25T15:50:23.445Z,33.50
2022-07-25T15:53:25.574Z,33.40
2022-07-25T15:56:28.069Z,33.30
2022-07-25T15:59:30.592Z,33.40
